Terminal Aerodrome Forecast
Issued by NWS Spokane, WA

Home | Current Version | Previous Version | Text Only | Print | Product List | Glossary On
Versions: 1 2 3 4 5 6 7 8 9 10 11 12 13 14 15 16 17 18 19 20 21 22
171
FTUS46 KOTX 041732
TAFLWS
TAF
KLWS 041732Z 0418/0518 24004KT P6SM SCT100 BKN180
     FM042000 28008KT P6SM SCT090 BKN150
     FM050600 24006KT P6SM SHRA BKN080 BKN120
     FM051200 21005KT P6SM VCSH BKN080 BKN200=

USA.gov is the U.S. government's official web portal to all federal, state and local government web resources and services.